createdAt,value
2018-12-20T00:00:40.812Z,27.77
2018-12-20T00:03:09.312Z,25.83
2018-12-20T00:05:37.975Z,27.27
2018-12-20T00:08:06.547Z,27.83
2018-12-20T00:10:35.010Z,28.20
2018-12-20T00:13:03.481Z,27.57
2018-12-20T00:15:32.063Z,27.63
2018-12-20T00:18:00.683Z,27.93
2018-12-20T00:20:29.231Z,26.50
2018-12-20T00:22:57.733Z,26.40
2018-12-20T00:31:13.671Z,29.27
2018-12-20T00:36:35.496Z,29.77
2018-12-20T00:39:06.142Z,29.80
2018-12-20T00:45:07.383Z,30.33
2018-12-20T01:27:50.672Z,33.07
2018-12-20T01:30:19.221Z,33.80
2018-12-20T01:32:47.753Z,35.77
2018-12-20T01:35:16.261Z,33.60
2018-12-20T01:43:30.321Z,33.80
2018-12-20T01:45:58.792Z,37.10
2018-12-20T01:51:23.782Z,34.23
2018-12-20T01:53:52.388Z,34.30
2018-12-20T01:56:20.909Z,33.50
2018-12-20T01:58:49.390Z,33.03
2018-12-20T02:04:10.417Z,35.37
2018-12-20T02:12:24.227Z,34.93
2018-12-20T02:14:52.871Z,36.57
2018-12-20T02:17:21.393Z,35.37
2018-12-20T02:19:49.844Z,35.97
2018-12-20T02:22:18.568Z,37.67
2018-12-20T02:24:47.031Z,37.57
2018-12-20T02:27:19.552Z,38.00
2018-12-20T02:29:48.355Z,38.33
2018-12-20T02:40:55.440Z,37.73
2018-12-20T02:43:23.927Z,39.33
2018-12-20T02:48:44.619Z,40.33
2018-12-20T02:58:31.521Z,42.77
2018-12-20T03:03:53.135Z,44.03
2018-12-20T03:12:07.210Z,47.27
2018-12-20T03:14:36.135Z,46.13
2018-12-20T03:17:05.126Z,48.87
2018-12-20T03:19:33.846Z,50.67
2018-12-20T03:22:02.562Z,48.43
2018-12-20T03:24:31.219Z,49.10
2018-12-20T03:27:00.009Z,51.50
2018-12-20T03:29:28.600Z,50.93
2018-12-20T03:31:57.626Z,54.00
2018-12-20T03:34:26.441Z,52.83
2018-12-20T03:36:55.106Z,56.43
2018-12-20T03:39:23.657Z,56.33
2018-12-20T03:41:52.266Z,56.67
2018-12-20T03:44:20.886Z,54.30
2018-12-20T03:46:49.408Z,54.73
2018-12-20T03:49:17.946Z,54.57
2018-12-20T03:51:46.694Z,54.77
2018-12-20T03:54:15.707Z,52.70
2018-12-20T03:56:44.292Z,55.00
2018-12-20T03:59:12.786Z,52.60
2018-12-20T04:01:41.382Z,53.90
2018-12-20T04:04:09.915Z,56.13
2018-12-20T04:12:55.284Z,53.57
2018-12-20T04:21:08.719Z,52.20
2018-12-20T04:23:37.267Z,52.43
2018-12-20T04:26:06.444Z,55.37
2018-12-20T04:28:34.866Z,52.00
2018-12-20T04:31:03.333Z,52.73
2018-12-20T04:33:31.767Z,52.97
2018-12-20T04:36:00.345Z,52.67
2018-12-20T04:38:28.882Z,52.80
2018-12-20T04:40:57.622Z,51.80
2018-12-20T04:43:26.228Z,51.00
2018-12-20T04:45:54.886Z,49.50
2018-12-20T04:54:08.674Z,48.63
2018-12-20T04:56:37.316Z,50.23
2018-12-20T05:01:58.570Z,50.17
2018-12-20T05:04:27.023Z,50.10
2018-12-20T05:06:55.478Z,51.10
2018-12-20T05:09:23.891Z,50.50
2018-12-20T05:11:52.343Z,51.00
2018-12-20T05:14:20.983Z,48.47
2018-12-20T05:16:49.643Z,49.77
2018-12-20T05:25:03.422Z,48.93
2018-12-20T05:27:31.891Z,47.83
2018-12-20T05:33:01.594Z,47.73
2018-12-20T05:35:30.329Z,47.47
2018-12-20T05:43:45.053Z,46.70
2018-12-20T05:46:13.662Z,46.20
2018-12-20T05:48:42.326Z,44.53
2018-12-20T05:51:10.906Z,45.03
2018-12-20T05:53:39.441Z,43.93
2018-12-20T05:56:07.957Z,45.40
2018-12-20T05:58:36.392Z,43.17
2018-12-20T06:01:04.866Z,42.77
2018-12-20T06:03:33.329Z,45.67
2018-12-20T06:06:01.860Z,43.80
2018-12-20T06:08:30.323Z,43.80
2018-12-20T06:10:58.767Z,44.37
2018-12-20T06:13:27.396Z,44.20
2018-12-20T06:15:55.915Z,44.23
2018-12-20T06:18:24.629Z,45.53
2018-12-20T06:20:53.251Z,45.77
2018-12-20T06:23:21.738Z,46.87
2018-12-20T06:25:50.288Z,45.23
2018-12-20T06:28:18.773Z,46.57
2018-12-20T06:30:47.296Z,45.83
2018-12-20T06:33:16.783Z,49.13
2018-12-20T06:35:45.235Z,50.43
2018-12-20T06:38:14.279Z,49.43
2018-12-20T06:40:42.734Z,49.17
2018-12-20T06:43:11.284Z,52.50
2018-12-20T06:45:39.748Z,49.60
2018-12-20T06:48:08.248Z,49.57
2018-12-20T06:50:36.710Z,46.93
2018-12-20T06:53:05.295Z,46.30
2018-12-20T06:55:33.735Z,48.17
2018-12-20T06:58:02.387Z,48.67
2018-12-20T07:00:30.932Z,48.70
2018-12-20T07:02:59.452Z,49.13
2018-12-20T07:05:27.915Z,48.50
2018-12-20T07:07:56.408Z,50.87
2018-12-20T07:10:24.911Z,47.73
2018-12-20T07:12:54.821Z,51.20
2018-12-20T07:15:23.489Z,47.93
2018-12-20T07:17:52.048Z,49.57
2018-12-20T07:20:20.523Z,47.53
2018-12-20T07:22:49.122Z,47.80
2018-12-20T07:25:17.557Z,49.57
2018-12-20T07:27:46.038Z,49.37
2018-12-20T07:30:18.142Z,51.07
2018-12-20T07:35:47.244Z,49.47
2018-12-20T07:41:09.800Z,48.73
2018-12-20T07:46:37.807Z,51.90
2018-12-20T07:49:01.751Z,51.97
2018-12-20T07:51:30.248Z,51.50
2018-12-20T07:59:24.809Z,48.10
2018-12-20T08:04:46.076Z,48.93
2018-12-20T08:07:16.032Z,54.33
2018-12-20T08:09:44.603Z,51.30
2018-12-20T08:12:13.096Z,52.13
2018-12-20T08:14:42.163Z,48.80
2018-12-20T08:17:10.606Z,50.73
2018-12-20T08:19:39.110Z,51.10
2018-12-20T08:25:00.480Z,50.93
2018-12-20T08:27:28.960Z,51.93
2018-12-20T08:38:33.064Z,50.73
2018-12-20T08:41:01.524Z,50.67
2018-12-20T08:43:29.996Z,51.17
2018-12-20T08:45:58.441Z,50.47
2018-12-20T08:48:26.907Z,50.53
2018-12-20T08:50:55.376Z,49.67
2018-12-20T08:53:23.867Z,50.87
2018-12-20T08:55:52.323Z,50.97
2018-12-20T08:58:20.796Z,52.13
2018-12-20T09:00:49.245Z,51.37
2018-12-20T09:03:17.717Z,49.70
2018-12-20T09:05:46.159Z,49.80
2018-12-20T09:14:00.067Z,49.40
2018-12-20T09:16:28.544Z,50.47
2018-12-20T09:18:57.034Z,50.17
2018-12-20T09:21:26.535Z,51.43
2018-12-20T09:23:58.701Z,51.37
2018-12-20T09:26:27.530Z,49.53
2018-12-20T09:28:56.148Z,49.83
2018-12-20T09:31:24.620Z,51.80
2018-12-20T09:33:53.094Z,50.07
2018-12-20T09:36:21.812Z,50.57
2018-12-20T09:38:50.285Z,51.40
2018-12-20T09:41:18.835Z,53.53
2018-12-20T09:43:47.407Z,52.57
2018-12-20T09:46:15.863Z,53.40
2018-12-20T09:48:46.329Z,50.73
2018-12-20T09:51:14.955Z,53.10
2018-12-20T09:53:43.452Z,53.27
2018-12-20T09:56:12.044Z,52.67
2018-12-20T09:58:40.490Z,52.47
2018-12-20T10:01:09.017Z,51.97
2018-12-20T10:03:37.559Z,50.40
2018-12-20T10:06:06.161Z,51.57
2018-12-20T10:08:34.767Z,50.23
2018-12-20T10:11:03.247Z,49.80
2018-12-20T10:13:31.696Z,51.17
2018-12-20T10:18:59.035Z,47.10
2018-12-20T10:21:27.488Z,48.27
2018-12-20T10:23:55.951Z,47.30
2018-12-20T10:26:24.519Z,46.30
2018-12-20T10:28:52.938Z,47.07
2018-12-20T10:31:21.423Z,47.37
2018-12-20T10:33:49.880Z,45.23
2018-12-20T10:36:18.341Z,45.73
2018-12-20T10:38:46.923Z,46.60
2018-12-20T10:41:15.398Z,47.57
2018-12-20T10:43:43.826Z,47.23
2018-12-20T10:46:12.286Z,47.30
2018-12-20T10:48:40.722Z,46.13
2018-12-20T10:51:09.173Z,46.97
2018-12-20T10:53:37.616Z,47.20
2018-12-20T10:56:06.100Z,46.57
2018-12-20T10:58:34.546Z,44.67
2018-12-20T11:01:08.339Z,44.97
2018-12-20T11:03:42.151Z,45.53
2018-12-20T11:07:14.501Z,46.40
2018-12-20T11:09:48.206Z,44.77
2018-12-20T11:12:20.789Z,44.10
2018-12-20T11:14:49.263Z,46.13
2018-12-20T11:17:17.691Z,45.47
2018-12-20T11:19:46.163Z,45.80
2018-12-20T11:22:14.603Z,46.07
2018-12-20T11:24:43.076Z,44.20
2018-12-20T11:27:11.508Z,43.47
2018-12-20T11:29:40.007Z,44.33
2018-12-20T11:32:08.472Z,44.03
2018-12-20T11:34:36.911Z,42.40
2018-12-20T11:37:05.375Z,41.80
2018-12-20T11:39:33.870Z,43.93
2018-12-20T11:42:02.331Z,46.10
2018-12-20T11:44:31.003Z,42.83
2018-12-20T11:46:59.583Z,41.97
2018-12-20T11:49:28.042Z,42.60
2018-12-20T11:51:56.487Z,41.87
2018-12-20T11:54:24.932Z,41.10
2018-12-20T11:56:53.378Z,41.13
2018-12-20T11:59:21.826Z,39.73
2018-12-20T12:01:50.294Z,39.53
2018-12-20T12:04:18.714Z,40.47
2018-12-20T12:06:47.191Z,40.60
2018-12-20T12:09:15.615Z,39.67
2018-12-20T12:11:44.125Z,40.00
2018-12-20T12:14:12.591Z,40.27
2018-12-20T12:16:41.175Z,39.07
2018-12-20T12:19:09.583Z,39.63
2018-12-20T12:21:38.038Z,40.80
2018-12-20T12:24:06.468Z,39.77
2018-12-20T12:26:35.038Z,37.87
2018-12-20T12:29:03.601Z,41.27
2018-12-20T12:31:32.076Z,38.60
2018-12-20T12:34:00.527Z,38.10
2018-12-20T12:36:29.140Z,38.30
2018-12-20T12:38:57.583Z,36.03
2018-12-20T12:41:26.084Z,35.97
2018-12-20T12:43:54.515Z,34.57
2018-12-20T12:46:22.963Z,33.10
2018-12-20T12:48:51.392Z,32.83
2018-12-20T12:51:19.814Z,34.73
2018-12-20T12:53:48.285Z,36.77
2018-12-20T12:56:16.724Z,34.43
2018-12-20T12:58:45.191Z,34.47
2018-12-20T13:01:14.776Z,34.43
2018-12-20T13:03:43.255Z,34.33
2018-12-20T13:06:11.739Z,34.73
2018-12-20T13:08:40.215Z,31.63
2018-12-20T13:11:08.671Z,31.87
2018-12-20T13:13:37.146Z,31.70
2018-12-20T13:16:05.628Z,30.93
2018-12-20T13:18:34.106Z,32.03
2018-12-20T13:21:02.540Z,32.37
2018-12-20T13:23:30.999Z,33.07
2018-12-20T13:25:59.459Z,31.93
2018-12-20T13:28:27.919Z,32.60
2018-12-20T13:30:56.391Z,31.37
2018-12-20T13:33:24.850Z,33.70
2018-12-20T13:35:53.286Z,34.50
2018-12-20T13:38:21.801Z,31.17
2018-12-20T13:40:50.315Z,32.20
2018-12-20T13:43:18.791Z,32.10
2018-12-20T13:45:47.234Z,30.73
2018-12-20T13:48:22.173Z,32.90
2018-12-20T13:50:46.175Z,32.93
2018-12-20T13:53:14.630Z,33.20
2018-12-20T13:55:43.093Z,32.80
2018-12-20T13:58:11.622Z,31.73
2018-12-20T14:00:40.484Z,32.97
2018-12-20T14:03:09.086Z,31.23
2018-12-20T14:05:37.527Z,56.40
2018-12-20T14:08:05.995Z,78.90
2018-12-20T14:10:34.477Z,80.37
2018-12-20T14:13:02.948Z,90.10
2018-12-20T14:15:31.431Z,32.20
2018-12-20T14:17:59.899Z,37.37
2018-12-20T14:20:28.331Z,35.43
2018-12-20T14:22:56.802Z,32.67
2018-12-20T14:25:25.261Z,33.47
2018-12-20T14:27:53.739Z,33.23
2018-12-20T14:30:22.157Z,32.87
2018-12-20T14:32:50.602Z,35.90
2018-12-20T14:35:19.071Z,32.27
2018-12-20T14:37:47.519Z,32.47
2018-12-20T14:40:15.998Z,35.13
2018-12-20T14:42:44.519Z,33.63
2018-12-20T14:45:13.126Z,33.70
2018-12-20T14:47:41.551Z,34.80
2018-12-20T14:50:10.331Z,34.23
2018-12-20T14:52:38.776Z,34.43
2018-12-20T14:55:08.765Z,34.13
2018-12-20T14:57:37.311Z,35.73
2018-12-20T15:00:07.683Z,34.30
2018-12-20T15:02:36.138Z,34.57
2018-12-20T15:05:04.955Z,34.23
2018-12-20T15:07:33.418Z,36.17
2018-12-20T15:10:01.937Z,38.10
2018-12-20T15:12:30.381Z,38.97
2018-12-20T15:14:58.881Z,41.80
2018-12-20T15:17:27.343Z,40.80
2018-12-20T15:19:55.827Z,41.30
2018-12-20T15:22:24.272Z,42.87
2018-12-20T15:24:52.751Z,44.27
2018-12-20T15:27:21.194Z,44.77
2018-12-20T15:29:49.656Z,43.17
2018-12-20T15:32:18.066Z,48.63
2018-12-20T15:34:46.581Z,42.30
2018-12-20T15:37:15.034Z,39.10
2018-12-20T15:39:43.535Z,39.97
2018-12-20T15:42:11.992Z,50.03
2018-12-20T15:44:40.501Z,44.43
2018-12-20T15:47:09.044Z,51.53
2018-12-20T15:49:41.916Z,50.33
2018-12-20T15:52:08.016Z,54.70
2018-12-20T15:54:36.512Z,113.80
2018-12-20T15:57:04.963Z,44.67
2018-12-20T15:59:33.407Z,41.70
2018-12-20T16:02:01.851Z,41.83
2018-12-20T16:04:30.328Z,40.97
2018-12-20T16:06:58.779Z,41.13
2018-12-20T16:09:27.236Z,41.70
2018-12-20T16:11:55.680Z,42.20
2018-12-20T16:14:24.201Z,40.57
2018-12-20T16:16:52.641Z,35.90
2018-12-20T16:19:21.138Z,39.73
2018-12-20T16:21:49.819Z,34.87
2018-12-20T16:24:18.287Z,33.97
2018-12-20T16:26:46.763Z,39.30
2018-12-20T16:29:15.193Z,33.23
2018-12-20T16:31:43.777Z,31.23
2018-12-20T16:34:12.548Z,37.73
2018-12-20T16:36:41.047Z,34.90
2018-12-20T16:39:09.717Z,42.87
2018-12-20T16:41:38.187Z,35.90
2018-12-20T16:44:06.619Z,38.53
2018-12-20T16:46:35.097Z,81.43
2018-12-20T16:49:03.551Z,134.80
2018-12-20T16:51:32.021Z,49.30
2018-12-20T16:54:00.462Z,37.97
2018-12-20T16:56:28.936Z,37.40
2018-12-20T16:58:57.367Z,36.53
2018-12-20T17:01:25.855Z,56.07
2018-12-20T17:03:54.295Z,40.87
2018-12-20T17:06:22.776Z,38.07
2018-12-20T17:08:51.205Z,40.03
2018-12-20T17:11:19.664Z,39.10
2018-12-20T17:13:48.131Z,36.07
2018-12-20T17:16:16.741Z,38.47
2018-12-20T17:18:45.194Z,35.47
2018-12-20T17:21:13.675Z,39.43
2018-12-20T17:23:42.111Z,40.77
2018-12-20T17:26:10.558Z,41.73
2018-12-20T17:28:39.007Z,50.27
2018-12-20T17:31:07.459Z,37.90
2018-12-20T17:33:35.895Z,40.40
2018-12-20T17:36:04.379Z,36.17
2018-12-20T17:38:32.943Z,85.10
2018-12-20T17:41:01.435Z,139.13
2018-12-20T17:43:29.891Z,44.93
2018-12-20T17:45:58.375Z,46.80
2018-12-20T17:48:29.433Z,49.17
2018-12-20T17:50:57.314Z,39.63
2018-12-20T17:53:25.879Z,38.20
2018-12-20T17:55:54.553Z,38.90
2018-12-20T17:58:23.199Z,39.87
2018-12-20T18:00:51.680Z,45.63
2018-12-20T18:03:20.167Z,52.27
2018-12-20T18:05:48.648Z,44.07
2018-12-20T18:08:17.097Z,39.60
2018-12-20T18:10:45.571Z,38.23
2018-12-20T18:13:14.054Z,41.03
2018-12-20T18:15:42.553Z,39.37
2018-12-20T18:18:10.971Z,40.87
2018-12-20T18:20:39.427Z,40.13
2018-12-20T18:23:07.954Z,40.07
2018-12-20T18:25:36.571Z,40.57
2018-12-20T18:28:05.039Z,41.80
2018-12-20T18:30:33.517Z,39.77
2018-12-20T18:33:02.092Z,39.37
2018-12-20T18:35:30.574Z,40.13
2018-12-20T18:37:59.032Z,43.20
2018-12-20T18:40:27.552Z,55.30
2018-12-20T18:42:56.002Z,74.57
2018-12-20T18:45:24.476Z,56.03
2018-12-20T18:47:53.055Z,43.23
2018-12-20T18:50:21.520Z,41.83
2018-12-20T18:52:50.032Z,43.07
2018-12-20T18:55:18.534Z,39.80
2018-12-20T18:57:46.982Z,38.90
2018-12-20T19:00:15.664Z,37.53
2018-12-20T19:02:44.127Z,36.60
2018-12-20T19:05:12.580Z,37.37
2018-12-20T19:07:41.064Z,37.83
2018-12-20T19:10:09.713Z,37.33
2018-12-20T19:12:38.184Z,33.20
2018-12-20T19:15:08.419Z,32.17
2018-12-20T19:17:36.900Z,30.70
2018-12-20T19:20:06.914Z,31.17
2018-12-20T19:22:37.074Z,28.77
2018-12-20T19:25:06.435Z,39.43
2018-12-20T19:27:34.908Z,47.73
2018-12-20T19:30:03.515Z,49.47
2018-12-20T19:32:31.979Z,53.97
2018-12-20T19:35:00.439Z,36.47
2018-12-20T19:37:28.927Z,35.67
2018-12-20T19:40:02.428Z,33.50
2018-12-20T19:42:30.879Z,33.60
2018-12-20T19:44:59.303Z,33.87
2018-12-20T19:47:27.763Z,34.47
2018-12-20T19:50:04.602Z,33.47
2018-12-20T19:52:27.159Z,34.93
2018-12-20T19:54:55.811Z,33.33
2018-12-20T19:57:24.684Z,33.87
2018-12-20T19:59:54.043Z,32.97
2018-12-20T20:02:23.524Z,33.50
2018-12-20T20:04:52.881Z,33.30
2018-12-20T20:07:21.411Z,33.27
2018-12-20T20:09:49.892Z,31.90
2018-12-20T20:12:18.410Z,30.87
2018-12-20T20:14:47.072Z,33.00
2018-12-20T20:17:15.539Z,30.67
2018-12-20T20:19:43.978Z,29.00
2018-12-20T20:22:12.694Z,31.20
2018-12-20T20:24:41.130Z,30.87
2018-12-20T20:27:09.607Z,32.03
2018-12-20T20:29:38.049Z,30.17
2018-12-20T20:32:06.548Z,28.43
2018-12-20T20:34:35.105Z,28.23
2018-12-20T20:37:03.584Z,30.20
2018-12-20T20:39:32.029Z,27.77
2018-12-20T20:42:00.503Z,31.17
2018-12-20T20:44:28.954Z,28.87
2018-12-20T20:46:57.423Z,31.53
2018-12-20T20:49:25.871Z,30.20
2018-12-20T20:51:54.373Z,28.90
2018-12-20T20:54:22.815Z,30.13
2018-12-20T20:56:51.293Z,30.13
2018-12-20T20:59:19.743Z,29.17
2018-12-20T21:01:48.311Z,29.30
2018-12-20T21:04:16.765Z,28.40
2018-12-20T21:06:47.074Z,30.07
2018-12-20T21:09:15.687Z,29.17
2018-12-20T21:11:44.128Z,27.83
2018-12-20T21:14:12.624Z,26.90
2018-12-20T21:16:41.077Z,30.03
2018-12-20T21:19:09.536Z,28.27
2018-12-20T21:21:38.012Z,27.97
2018-12-20T21:24:06.615Z,27.17
2018-12-20T21:26:35.067Z,26.43
2018-12-20T21:29:03.543Z,25.87
2018-12-20T21:31:31.982Z,25.80
2018-12-20T21:34:00.492Z,25.53
2018-12-20T21:36:28.945Z,27.97
2018-12-20T21:38:57.423Z,27.23
2018-12-20T21:41:25.895Z,25.53
2018-12-20T21:43:54.358Z,23.93
2018-12-20T21:46:22.813Z,25.77
2018-12-20T21:48:51.284Z,27.13
2018-12-20T21:51:19.726Z,28.17
2018-12-20T21:53:54.847Z,29.30
2018-12-20T22:03:14.013Z,27.17
2018-12-20T22:05:42.427Z,29.90
2018-12-20T22:08:10.894Z,30.53
2018-12-20T22:10:39.339Z,30.73
2018-12-20T22:13:07.810Z,30.97
2018-12-20T22:15:36.286Z,29.73
2018-12-20T22:18:04.763Z,27.77
2018-12-20T22:20:33.206Z,26.07
2018-12-20T22:23:01.663Z,26.13
2018-12-20T22:25:30.140Z,24.40
2018-12-20T22:27:58.588Z,25.03
2018-12-20T22:30:27.075Z,24.33
2018-12-20T22:32:55.506Z,23.20
2018-12-20T22:35:23.961Z,22.30
2018-12-20T22:37:52.403Z,22.60
2018-12-20T22:40:20.859Z,22.90
2018-12-20T22:42:49.281Z,23.10
2018-12-20T22:45:17.737Z,22.93
2018-12-20T22:47:46.178Z,22.87
2018-12-20T22:50:14.637Z,24.60
2018-12-20T22:52:43.203Z,21.33
2018-12-20T22:55:11.667Z,23.63
2018-12-20T22:57:40.081Z,21.83
2018-12-20T23:00:11.360Z,22.47
2018-12-20T23:02:39.962Z,34.30
2018-12-20T23:05:08.443Z,22.03
2018-12-20T23:07:36.904Z,22.03
2018-12-20T23:10:05.943Z,22.80
2018-12-20T23:12:34.379Z,24.03
2018-12-20T23:15:02.887Z,22.33
2018-12-20T23:17:31.331Z,21.50
2018-12-20T23:19:59.782Z,21.60
2018-12-20T23:22:28.217Z,21.63
2018-12-20T23:24:56.683Z,21.03
2018-12-20T23:27:25.111Z,22.63
2018-12-20T23:29:53.550Z,22.67
2018-12-20T23:32:21.991Z,21.13
2018-12-20T23:34:50.458Z,21.27
2018-12-20T23:37:18.903Z,21.60
2018-12-20T23:39:47.382Z,19.93
2018-12-20T23:42:16.339Z,20.67
2018-12-20T23:44:44.847Z,20.07
2018-12-20T23:47:13.275Z,19.87
2018-12-20T23:49:41.730Z,19.60
2018-12-20T23:52:10.239Z,19.03
2018-12-20T23:54:38.715Z,20.77
2018-12-20T23:57:07.147Z,19.60
2018-12-20T23:59:35.614Z,19.17
